CheckWX is a tool to help pilots better visualize weather data.  It is not intended as a substitute for an official pre-flight weather briefing.

17:53:09 UTC

EPGD TAF
Gdańsk Lech Wałęsa Airport
Gdańsk, Poland
TAF EPGD 081730Z 0818/0918 26012KT 9999 BKN040 PROB40 TEMPO 0910/0918 -SHRA BKN030CB

Jul-8@
18:00 UTC

Jul-8 @ 18:00 UTC

Jul-9@
18:00 UTC

Jul-9 @ 18:00 UTC

TAF EPGD 081730Z 0818/0918 26012KT 9999 BKN040
Wind
  • 260° at 12 KTS
Cloud Levels
  • Broken at 4,000' AGL

Jul-9@
10:00 UTC

Jul-9 @ 10:00 UTC

Jul-9@
18:00 UTC

Jul-9 @ 18:00 UTC

PROB40 TEMPO 0910/0918 -SHRA BKN030CB

Temporary - 40% Likelihood

Temporary - 40% Likelihood during this time.

Conditions
Light Showers, Rain
Cloud Levels
  • Broken at 3,000' AGL